createdAt,value
2022-08-28T00:00:42.479Z,100.00
2022-08-28T00:03:10.515Z,100.00
2022-08-28T00:05:39.621Z,100.00
2022-08-28T00:08:06.589Z,100.00
2022-08-28T00:10:34.188Z,100.00
2022-08-28T00:13:01.287Z,100.00
2022-08-28T00:15:33.725Z,100.00
2022-08-28T00:18:03.598Z,100.00
2022-08-28T00:20:31.761Z,100.00
2022-08-28T00:22:59.510Z,100.00
2022-08-28T00:25:29.215Z,100.00
2022-08-28T00:27:58.357Z,100.00
2022-08-28T00:30:31.169Z,100.00
2022-08-28T00:33:06.276Z,100.00
2022-08-28T00:35:33.427Z,100.00
2022-08-28T00:38:00.863Z,100.00
2022-08-28T00:40:32.951Z,100.00
2022-08-28T00:43:03.058Z,100.00
2022-08-28T00:45:30.923Z,100.00
2022-08-28T00:47:58.455Z,100.00
2022-08-28T00:50:28.462Z,100.00
2022-08-28T00:53:01.376Z,100.00
2022-08-28T00:55:29.121Z,100.00
2022-08-28T00:57:59.075Z,100.00
2022-08-28T01:00:34.255Z,100.00
2022-08-28T01:03:01.381Z,100.00
2022-08-28T01:05:29.292Z,100.00
2022-08-28T01:07:58.783Z,100.00
2022-08-28T01:10:29.793Z,100.00
2022-08-28T01:12:57.799Z,100.00
2022-08-28T01:15:29.747Z,100.00
2022-08-28T01:18:08.296Z,100.00
2022-08-28T01:20:46.814Z,100.00
2022-08-28T01:23:17.724Z,100.00
2022-08-28T01:25:44.611Z,100.00
2022-08-28T01:28:14.356Z,100.00
2022-08-28T01:30:44.534Z,100.00
2022-08-28T01:33:12.111Z,100.00
2022-08-28T01:35:41.811Z,100.00
2022-08-28T01:38:08.545Z,100.00
2022-08-28T01:40:41.155Z,100.00
2022-08-28T01:43:33.871Z,100.00
2022-08-28T01:46:04.999Z,100.00
2022-08-28T01:48:35.846Z,100.00
2022-08-28T01:51:04.359Z,100.00
2022-08-28T01:53:33.159Z,100.00
2022-08-28T01:56:04.437Z,100.00
2022-08-28T01:58:36.029Z,100.00
2022-08-28T02:01:09.788Z,100.00
2022-08-28T02:03:36.697Z,100.00
2022-08-28T02:06:03.662Z,100.00
2022-08-28T02:08:30.331Z,100.00
2022-08-28T02:10:57.002Z,100.00
2022-08-28T02:13:25.726Z,100.00
2022-08-28T02:15:52.621Z,100.00
2022-08-28T02:18:19.575Z,100.00
2022-08-28T02:20:46.634Z,100.00
2022-08-28T02:23:13.840Z,100.00
2022-08-28T02:25:40.555Z,100.00
2022-08-28T02:28:07.658Z,100.00
2022-08-28T02:30:35.791Z,100.00
2022-08-28T02:33:02.589Z,100.00
2022-08-28T02:35:31.260Z,100.00
2022-08-28T02:38:00.373Z,100.00
2022-08-28T02:40:27.943Z,100.00
2022-08-28T02:42:54.761Z,100.00
2022-08-28T02:45:21.533Z,100.00
2022-08-28T02:47:51.331Z,100.00
2022-08-28T02:50:19.737Z,100.00
2022-08-28T02:52:46.816Z,100.00
2022-08-28T02:55:17.399Z,100.00
2022-08-28T02:57:45.442Z,100.00
2022-08-28T03:00:18.291Z,100.00
2022-08-28T03:02:46.319Z,100.00
2022-08-28T03:05:16.096Z,100.00
2022-08-28T03:07:42.860Z,100.00
2022-08-28T03:10:09.713Z,100.00
2022-08-28T03:12:36.759Z,100.00
2022-08-28T03:15:03.942Z,100.00
2022-08-28T03:17:31.809Z,100.00
2022-08-28T03:19:59.032Z,100.00
2022-08-28T03:22:44.774Z,100.00
2022-08-28T03:25:12.440Z,100.00
2022-08-28T03:27:39.468Z,100.00
2022-08-28T03:30:08.063Z,100.00
2022-08-28T03:32:35.104Z,100.00
2022-08-28T03:35:02.682Z,100.00
2022-08-28T03:37:29.397Z,100.00
2022-08-28T03:39:56.190Z,100.00
2022-08-28T03:42:23.279Z,100.00
2022-08-28T03:44:49.976Z,100.00
2022-08-28T03:47:16.871Z,100.00
2022-08-28T03:49:45.401Z,100.00
2022-08-28T03:52:12.716Z,100.00
2022-08-28T03:54:39.414Z,100.00
2022-08-28T03:57:07.584Z,100.00
2022-08-28T03:59:35.774Z,100.00
2022-08-28T04:02:02.518Z,100.00
2022-08-28T04:04:29.191Z,100.00
2022-08-28T04:06:55.935Z,100.00
2022-08-28T04:09:22.631Z,100.00
2022-08-28T04:11:49.300Z,100.00
2022-08-28T04:14:15.966Z,100.00
2022-08-28T04:16:42.867Z,100.00
2022-08-28T04:19:09.749Z,100.00
2022-08-28T04:21:36.915Z,100.00
2022-08-28T04:24:07.772Z,100.00
2022-08-28T04:26:36.810Z,100.00
2022-08-28T04:29:05.184Z,100.00
2022-08-28T04:31:32.898Z,100.00
2022-08-28T04:34:05.939Z,100.00
2022-08-28T04:36:35.905Z,100.00
2022-08-28T04:39:08.484Z,100.00
2022-08-28T04:41:38.577Z,100.00
2022-08-28T04:44:05.949Z,100.00
2022-08-28T04:46:32.825Z,100.00
2022-08-28T04:49:00.200Z,100.00
2022-08-28T04:51:27.427Z,100.00
2022-08-28T04:53:54.142Z,100.00
2022-08-28T04:56:20.867Z,100.00
2022-08-28T04:58:48.183Z,100.00
2022-08-28T05:01:19.493Z,100.00
2022-08-28T05:03:47.869Z,100.00
2022-08-28T05:06:16.488Z,100.00
2022-08-28T05:08:43.573Z,100.00
2022-08-28T05:11:30.726Z,100.00
2022-08-28T05:14:04.560Z,100.00
2022-08-28T05:16:33.144Z,100.00
2022-08-28T05:19:01.349Z,100.00
2022-08-28T05:21:28.321Z,100.00
2022-08-28T05:23:58.091Z,100.00
2022-08-28T05:26:26.891Z,100.00
2022-08-28T05:28:56.219Z,100.00
2022-08-28T05:31:24.076Z,100.00
2022-08-28T05:33:52.675Z,100.00
2022-08-28T05:36:22.655Z,100.00
2022-08-28T05:38:50.661Z,100.00
2022-08-28T05:41:22.731Z,100.00
2022-08-28T05:43:50.208Z,100.00
2022-08-28T05:46:17.784Z,100.00
2022-08-28T05:48:45.652Z,100.00
2022-08-28T05:51:14.834Z,100.00
2022-08-28T05:53:43.557Z,100.00
2022-08-28T05:56:32.734Z,100.00
2022-08-28T05:59:00.722Z,100.00
2022-08-28T06:01:30.288Z,100.00
2022-08-28T06:04:02.869Z,100.00
2022-08-28T06:06:30.879Z,100.00
2022-08-28T06:08:59.750Z,100.00
2022-08-28T06:11:30.558Z,100.00
2022-08-28T06:14:03.490Z,100.00
2022-08-28T06:16:32.482Z,100.00
2022-08-28T06:19:00.779Z,100.00
2022-08-28T06:21:29.001Z,100.00
2022-08-28T06:23:56.243Z,100.00
2022-08-28T06:26:23.398Z,100.00
2022-08-28T06:28:50.111Z,100.00
2022-08-28T06:31:24.204Z,100.00
2022-08-28T06:33:57.037Z,99.30
2022-08-28T06:36:25.517Z,98.20
2022-08-28T06:38:52.236Z,97.86
2022-08-28T06:41:19.708Z,95.86
2022-08-28T06:43:46.474Z,97.20
2022-08-28T06:46:13.272Z,98.79
2022-08-28T06:48:40.129Z,97.10
2022-08-28T06:51:10.006Z,94.61
2022-08-28T06:53:37.901Z,94.35
2022-08-28T06:56:26.102Z,91.46
2022-08-28T06:58:56.328Z,89.63
2022-08-28T07:01:29.856Z,88.86
2022-08-28T07:04:04.016Z,88.70
2022-08-28T07:06:34.131Z,89.00
2022-08-28T07:09:01.079Z,89.19
2022-08-28T07:11:30.179Z,89.82
2022-08-28T07:13:57.613Z,89.93
2022-08-28T07:16:27.943Z,89.89
2022-08-28T07:18:55.079Z,90.50
2022-08-28T07:21:22.004Z,89.11
2022-08-28T07:23:48.871Z,87.21
2022-08-28T07:26:23.563Z,86.50
2022-08-28T07:28:51.967Z,83.85
2022-08-28T07:31:26.127Z,84.15
2022-08-28T07:33:54.840Z,86.51
2022-08-28T07:36:29.732Z,85.47
2022-08-28T07:38:59.275Z,81.58
2022-08-28T07:41:31.086Z,80.72
2022-08-28T07:44:16.723Z,83.52
2022-08-28T07:46:44.592Z,81.37
2022-08-28T07:49:12.951Z,78.17
2022-08-28T07:51:39.683Z,76.79
2022-08-28T07:54:07.294Z,79.14
2022-08-28T07:56:42.431Z,76.67
2022-08-28T07:59:11.275Z,72.88
2022-08-28T08:01:41.700Z,71.99
2022-08-28T08:04:12.671Z,70.91
2022-08-28T08:06:41.952Z,69.56
2022-08-28T08:09:12.746Z,67.18
2022-08-28T08:11:40.066Z,67.96
2022-08-28T08:14:07.417Z,67.37
2022-08-28T08:16:38.717Z,65.54
2022-08-28T08:19:06.851Z,66.95
2022-08-28T08:21:33.577Z,61.08
2022-08-28T08:24:00.260Z,66.35
2022-08-28T08:26:30.568Z,65.69
2022-08-28T08:28:57.467Z,66.02
2022-08-28T08:31:28.407Z,66.05
2022-08-28T08:33:57.939Z,64.85
2022-08-28T08:36:26.443Z,66.23
2022-08-28T08:38:59.569Z,66.66
2022-08-28T08:41:34.724Z,65.12
2022-08-28T08:44:05.379Z,60.94
2022-08-28T08:46:38.345Z,59.70
2022-08-28T08:49:14.692Z,59.64
2022-08-28T08:51:46.394Z,62.58
2022-08-28T08:54:16.648Z,58.55
2022-08-28T08:56:45.000Z,57.94
2022-08-28T08:59:17.523Z,59.24
2022-08-28T09:02:05.171Z,61.67
2022-08-28T09:04:46.405Z,62.55
2022-08-28T09:07:30.227Z,60.65
2022-08-28T09:09:58.292Z,58.07
2022-08-28T09:12:35.089Z,55.76
2022-08-28T09:15:14.427Z,54.59
2022-08-28T09:17:47.801Z,59.15
2022-08-28T09:20:18.963Z,54.58
2022-08-28T09:22:49.331Z,58.38
2022-08-28T09:25:45.126Z,57.64
2022-08-28T09:28:22.249Z,56.08
2022-08-28T09:31:09.245Z,50.02
2022-08-28T09:33:41.804Z,50.73
2022-08-28T09:36:31.480Z,44.18
2022-08-28T09:39:23.804Z,44.99
2022-08-28T09:42:10.805Z,43.10
2022-08-28T09:45:21.271Z,45.69
2022-08-28T09:47:58.915Z,43.53
2022-08-28T09:50:42.352Z,42.13
2022-08-28T09:53:09.067Z,42.58
2022-08-28T09:55:35.686Z,43.98
2022-08-28T09:58:03.922Z,43.01
2022-08-28T10:00:35.421Z,42.94
2022-08-28T10:03:17.895Z,43.09
2022-08-28T10:06:23.259Z,43.00
2022-08-28T10:08:49.920Z,43.60
2022-08-28T10:11:25.387Z,42.25
2022-08-28T10:14:04.399Z,43.22
2022-08-28T10:17:10.901Z,40.60
2022-08-28T10:19:59.527Z,37.69
2022-08-28T10:22:38.316Z,37.31
2022-08-28T10:25:33.709Z,41.12
2022-08-28T10:28:21.854Z,40.36
2022-08-28T10:31:15.389Z,38.22
2022-08-28T10:34:11.702Z,38.21
2022-08-28T10:36:38.482Z,36.08
2022-08-28T10:39:14.204Z,38.32
2022-08-28T10:41:52.287Z,36.29
2022-08-28T10:44:39.679Z,36.74
2022-08-28T10:47:08.467Z,34.32
2022-08-28T10:49:39.690Z,36.59
2022-08-28T10:52:09.201Z,37.25
2022-08-28T10:54:53.747Z,33.23
2022-08-28T10:57:52.242Z,32.46
2022-08-28T11:00:23.387Z,35.56
2022-08-28T11:02:52.478Z,36.74
2022-08-28T11:05:24.046Z,35.00
2022-08-28T11:07:58.935Z,35.09
2022-08-28T11:10:38.708Z,38.24
2022-08-28T11:13:07.468Z,40.00
2022-08-28T11:15:37.142Z,38.71
2022-08-28T11:18:16.203Z,38.25
2022-08-28T11:21:14.054Z,36.87
2022-08-28T11:23:51.924Z,37.22
2022-08-28T11:26:39.964Z,38.72
2022-08-28T11:29:06.747Z,40.42
2022-08-28T11:31:36.895Z,42.64
2022-08-28T11:34:05.591Z,42.40
2022-08-28T11:36:32.574Z,42.53
2022-08-28T11:39:02.494Z,43.73
2022-08-28T11:41:39.003Z,45.26
2022-08-28T11:44:09.009Z,43.55
2022-08-28T11:46:40.668Z,40.01
2022-08-28T11:49:29.192Z,37.80
2022-08-28T11:52:14.364Z,36.10
2022-08-28T11:55:13.412Z,34.26
2022-08-28T12:00:52.754Z,32.40
2022-08-28T12:03:35.510Z,31.08
2022-08-28T12:06:03.402Z,31.98
2022-08-28T12:08:46.003Z,32.14
2022-08-28T12:11:40.764Z,32.47
2022-08-28T12:14:11.820Z,33.90
2022-08-28T12:17:03.751Z,38.79
2022-08-28T12:19:37.039Z,41.51
2022-08-28T12:22:22.719Z,40.99
2022-08-28T12:25:03.296Z,40.36
2022-08-28T12:27:31.887Z,37.40
2022-08-28T12:30:01.106Z,38.37
2022-08-28T12:32:38.015Z,35.72
2022-08-28T12:35:21.067Z,38.70
2022-08-28T12:37:53.877Z,37.26
2022-08-28T12:40:20.854Z,38.63
2022-08-28T12:43:05.615Z,35.32
2022-08-28T12:45:42.954Z,33.60
2022-08-28T12:48:21.891Z,31.68
2022-08-28T12:50:56.146Z,32.67
2022-08-28T12:53:25.737Z,30.55
2022-08-28T12:55:53.675Z,31.99
2022-08-28T12:58:40.494Z,32.04
2022-08-28T13:01:14.515Z,30.61
2022-08-28T13:04:06.429Z,32.81
2022-08-28T13:06:36.577Z,31.84
2022-08-28T13:09:16.057Z,32.43
2022-08-28T13:11:49.246Z,30.64
2022-08-28T13:14:43.842Z,32.31
2022-08-28T13:17:12.960Z,32.68
2022-08-28T13:19:40.087Z,31.63
2022-08-28T13:22:28.446Z,32.74
2022-08-28T13:25:01.195Z,34.93
2022-08-28T13:27:28.724Z,38.72
2022-08-28T13:30:00.051Z,38.79
2022-08-28T13:32:31.692Z,41.58
2022-08-28T13:35:20.587Z,43.40
2022-08-28T13:37:50.415Z,39.71
2022-08-28T13:40:53.532Z,36.49
2022-08-28T13:43:10.176Z,34.59
2022-08-28T13:45:43.264Z,39.01
2022-08-28T13:48:15.653Z,36.92
2022-08-28T13:50:46.922Z,36.22
2022-08-28T13:53:16.717Z,34.77
2022-08-28T13:55:46.868Z,33.45
2022-08-28T13:58:14.082Z,35.05
2022-08-28T14:00:45.146Z,36.11
2022-08-28T14:03:30.613Z,39.49
2022-08-28T14:05:57.327Z,40.23
2022-08-28T14:08:24.125Z,43.25
2022-08-28T14:10:50.837Z,44.48
2022-08-28T14:13:18.734Z,47.29
2022-08-28T14:15:45.747Z,47.47
2022-08-28T14:18:12.514Z,48.77
2022-08-28T14:20:39.587Z,49.41
2022-08-28T14:23:06.334Z,48.78
2022-08-28T14:25:35.882Z,49.86
2022-08-28T14:28:05.870Z,49.30
2022-08-28T14:30:32.534Z,50.12
2022-08-28T14:32:59.210Z,49.80
2022-08-28T14:35:26.649Z,52.02
2022-08-28T14:37:53.324Z,53.60
2022-08-28T14:40:20.059Z,53.73
2022-08-28T14:42:46.767Z,54.74
2022-08-28T14:45:13.544Z,57.84
2022-08-28T14:47:40.497Z,60.24
2022-08-28T14:50:07.642Z,61.91
2022-08-28T14:52:34.522Z,62.38
2022-08-28T14:55:01.206Z,62.94
2022-08-28T14:57:27.919Z,62.76
2022-08-28T14:59:54.687Z,63.41
2022-08-28T15:02:21.344Z,63.71
2022-08-28T15:04:48.064Z,63.40
2022-08-28T15:07:15.350Z,64.61
2022-08-28T15:09:43.037Z,64.73
2022-08-28T15:12:10.476Z,64.22
2022-08-28T15:14:37.578Z,63.39
2022-08-28T15:17:04.786Z,64.74
2022-08-28T15:19:31.712Z,65.26
2022-08-28T15:21:59.157Z,64.34
2022-08-28T15:24:31.388Z,63.49
2022-08-28T15:26:59.676Z,64.70
2022-08-28T15:29:29.127Z,64.44
2022-08-28T15:31:56.607Z,63.47
2022-08-28T15:34:25.683Z,62.34
2022-08-28T15:36:55.198Z,62.21
2022-08-28T15:39:43.401Z,61.88
2022-08-28T15:42:11.378Z,61.90
2022-08-28T15:44:38.089Z,61.89
2022-08-28T15:47:06.121Z,61.66
2022-08-28T15:49:43.652Z,61.31
2022-08-28T15:52:15.722Z,61.54
2022-08-28T15:54:42.932Z,61.59
2022-08-28T15:57:09.673Z,62.13
2022-08-28T15:59:47.892Z,63.88
2022-08-28T16:02:21.785Z,63.53
2022-08-28T16:04:48.876Z,64.37
2022-08-28T16:07:16.337Z,65.52
2022-08-28T16:09:42.982Z,65.67
2022-08-28T16:12:09.750Z,66.87
2022-08-28T16:14:36.652Z,67.54
2022-08-28T16:17:05.932Z,69.12
2022-08-28T16:19:39.902Z,69.81
2022-08-28T16:22:07.893Z,71.04
2022-08-28T16:24:35.012Z,70.83
2022-08-28T16:27:01.726Z,71.92
2022-08-28T16:29:28.578Z,71.77
2022-08-28T16:31:56.616Z,72.25
2022-08-28T16:34:25.294Z,72.65
2022-08-28T16:36:55.072Z,72.03
2022-08-28T16:39:21.734Z,71.82
2022-08-28T16:41:50.210Z,71.46
2022-08-28T16:44:22.846Z,71.91
2022-08-28T16:46:50.303Z,72.55
2022-08-28T16:49:17.197Z,72.89
2022-08-28T16:51:43.831Z,73.28
2022-08-28T16:54:10.584Z,73.24
2022-08-28T16:56:37.280Z,74.32
2022-08-28T16:59:04.703Z,74.71
2022-08-28T17:01:40.183Z,75.14
2022-08-28T17:04:09.634Z,74.46
2022-08-28T17:06:36.275Z,75.08
2022-08-28T17:09:03.066Z,74.13
2022-08-28T17:11:29.822Z,74.43
2022-08-28T17:13:58.795Z,74.24
2022-08-28T17:16:31.299Z,74.83
2022-08-28T17:18:59.335Z,74.44
2022-08-28T17:21:44.982Z,74.77
2022-08-28T17:24:12.623Z,75.07
2022-08-28T17:26:40.633Z,74.95
2022-08-28T17:29:07.386Z,74.87
2022-08-28T17:31:34.321Z,75.12
2022-08-28T17:34:01.085Z,75.45
2022-08-28T17:36:33.194Z,75.89
2022-08-28T17:39:06.019Z,75.37
2022-08-28T17:41:33.842Z,76.13
2022-08-28T17:44:01.771Z,76.03
2022-08-28T17:46:30.860Z,75.36
2022-08-28T17:49:00.099Z,75.20
2022-08-28T17:51:42.331Z,76.50
2022-08-28T17:54:15.625Z,75.78
2022-08-28T17:56:42.586Z,76.08
2022-08-28T17:59:10.383Z,75.37
2022-08-28T18:01:38.451Z,76.23
2022-08-28T18:04:05.907Z,76.18
2022-08-28T18:06:32.703Z,77.66
2022-08-28T18:09:00.415Z,77.90
2022-08-28T18:11:27.797Z,76.79
2022-08-28T18:13:54.670Z,76.61
2022-08-28T18:16:21.837Z,77.08
2022-08-28T18:18:48.622Z,77.81
2022-08-28T18:21:15.382Z,78.46
2022-08-28T18:23:42.127Z,77.06
2022-08-28T18:26:09.222Z,76.90
2022-08-28T18:28:36.820Z,76.05
2022-08-28T18:31:06.042Z,75.56
2022-08-28T18:33:33.983Z,75.87
2022-08-28T18:36:00.849Z,76.69
2022-08-28T18:38:28.597Z,77.54
2022-08-28T18:40:55.751Z,78.17
2022-08-28T18:43:22.598Z,77.69
2022-08-28T18:45:49.583Z,78.78
2022-08-28T18:48:16.749Z,81.38
2022-08-28T18:50:46.411Z,81.97
2022-08-28T18:53:15.372Z,81.22
2022-08-28T18:55:42.098Z,80.76
2022-08-28T18:58:11.127Z,80.39
2022-08-28T19:00:42.386Z,79.34
2022-08-28T19:03:09.350Z,79.27
2022-08-28T19:05:37.598Z,79.42
2022-08-28T19:08:05.284Z,78.89
2022-08-28T19:10:34.711Z,78.63
2022-08-28T19:13:02.514Z,78.91
2022-08-28T19:15:30.239Z,80.08
2022-08-28T19:17:59.674Z,80.39
2022-08-28T19:20:28.008Z,81.26
2022-08-28T19:22:56.361Z,82.34
2022-08-28T19:25:28.295Z,83.23
2022-08-28T19:28:01.386Z,84.50
2022-08-28T19:30:31.343Z,85.60
2022-08-28T19:32:58.320Z,86.17
2022-08-28T19:35:25.183Z,86.30
2022-08-28T19:37:53.270Z,87.43
2022-08-28T19:40:20.915Z,88.55
2022-08-28T19:42:49.901Z,89.86
2022-08-28T19:45:18.229Z,90.48
2022-08-28T19:47:45.377Z,90.27
2022-08-28T19:50:14.486Z,88.56
2022-08-28T19:52:43.168Z,88.38
2022-08-28T19:55:17.426Z,88.99
2022-08-28T19:57:46.152Z,91.10
2022-08-28T20:00:17.673Z,92.73
2022-08-28T20:02:45.123Z,93.14
2022-08-28T20:05:11.841Z,94.51
2022-08-28T20:07:38.532Z,95.59
2022-08-28T20:10:06.502Z,96.56
2022-08-28T20:12:34.105Z,96.54
2022-08-28T20:15:03.673Z,95.91
2022-08-28T20:17:30.736Z,97.20
2022-08-28T20:20:02.296Z,99.41
2022-08-28T20:22:29.743Z,99.93
2022-08-28T20:24:56.400Z,100.00
2022-08-28T20:27:23.066Z,99.34
2022-08-28T20:29:49.754Z,98.79
2022-08-28T20:32:17.570Z,98.86
2022-08-28T20:34:44.671Z,98.84
2022-08-28T20:37:11.578Z,98.95
2022-08-28T20:39:41.469Z,99.97
2022-08-28T20:42:09.864Z,99.95
2022-08-28T20:44:36.659Z,100.00
2022-08-28T20:47:03.939Z,100.00
2022-08-28T20:49:30.840Z,100.00
2022-08-28T20:51:58.766Z,100.00
2022-08-28T20:54:36.957Z,100.00
2022-08-28T20:57:08.102Z,100.00
2022-08-28T20:59:40.108Z,100.00
2022-08-28T21:02:08.828Z,100.00
2022-08-28T21:04:37.138Z,100.00
2022-08-28T21:07:05.835Z,100.00
2022-08-28T21:09:35.894Z,100.00
2022-08-28T21:12:19.973Z,100.00
2022-08-28T21:14:51.437Z,100.00
2022-08-28T21:17:29.058Z,100.00
2022-08-28T21:20:01.317Z,100.00
2022-08-28T21:22:30.080Z,100.00
2022-08-28T21:24:56.830Z,100.00
2022-08-28T21:27:24.913Z,100.00
2022-08-28T21:29:55.157Z,100.00
2022-08-28T21:32:21.866Z,100.00
2022-08-28T21:34:48.547Z,100.00
2022-08-28T21:37:15.825Z,100.00
2022-08-28T21:39:44.828Z,100.00
2022-08-28T21:42:11.806Z,100.00
2022-08-28T21:44:39.040Z,100.00
2022-08-28T21:47:05.905Z,100.00
2022-08-28T21:49:32.548Z,100.00
2022-08-28T21:52:03.086Z,100.00
2022-08-28T21:54:30.316Z,100.00
2022-08-28T21:56:58.910Z,100.00
2022-08-28T21:59:28.536Z,100.00
2022-08-28T22:02:04.648Z,100.00
2022-08-28T22:04:31.340Z,100.00
2022-08-28T22:06:58.391Z,100.00
2022-08-28T22:09:25.028Z,100.00
2022-08-28T22:11:51.733Z,100.00
2022-08-28T22:14:18.485Z,100.00
2022-08-28T22:16:45.342Z,100.00
2022-08-28T22:19:12.072Z,100.00
2022-08-28T22:21:57.684Z,100.00
2022-08-28T22:24:24.361Z,100.00
2022-08-28T22:26:53.246Z,100.00
2022-08-28T22:29:24.839Z,100.00
2022-08-28T22:31:52.562Z,100.00
2022-08-28T22:34:19.422Z,100.00
2022-08-28T22:36:46.074Z,100.00
2022-08-28T22:39:12.834Z,100.00
2022-08-28T22:41:40.262Z,100.00
2022-08-28T22:44:07.413Z,100.00
2022-08-28T22:46:35.910Z,100.00
2022-08-28T22:49:02.615Z,100.00
2022-08-28T22:51:29.357Z,100.00
2022-08-28T22:53:56.379Z,100.00
2022-08-28T22:56:23.085Z,100.00
2022-08-28T22:58:49.790Z,100.00
2022-08-28T23:01:20.109Z,100.00
2022-08-28T23:03:47.411Z,100.00
2022-08-28T23:06:14.398Z,100.00
2022-08-28T23:08:41.328Z,100.00
2022-08-28T23:11:09.480Z,100.00
2022-08-28T23:13:37.265Z,100.00
2022-08-28T23:16:04.344Z,100.00
2022-08-28T23:18:46.271Z,100.00
2022-08-28T23:21:19.696Z,100.00
2022-08-28T23:23:46.788Z,100.00
2022-08-28T23:26:14.822Z,100.00
2022-08-28T23:28:41.615Z,100.00
2022-08-28T23:31:08.552Z,100.00
2022-08-28T23:33:35.793Z,100.00
2022-08-28T23:36:03.542Z,100.00
2022-08-28T23:38:30.489Z,100.00
2022-08-28T23:40:57.177Z,100.00
2022-08-28T23:43:24.023Z,100.00
2022-08-28T23:45:51.914Z,100.00
2022-08-28T23:48:18.832Z,100.00
2022-08-28T23:50:45.518Z,100.00
2022-08-28T23:53:12.178Z,100.00
2022-08-28T23:55:39.252Z,100.00
2022-08-28T23:58:06.482Z,100.00
